Flight Number: AVA1789 Duration: 2:15
Departure: Frankfurt am Main (EDDF) at 09:00 Distance: 790.35 Nm
Arrival: Kerkyra (Corfu) (LGKR) at 11:15 Equipment: A321

Weather Information
Frankfurt / M-Flughafen, Germany (EDDF) 50-03N 008-36E 113M Apr 05, 2020 - 08:20 AM EDT / 2020.04.05 1220 UTC
Wind: from the E (100 degrees) at 14 MPH (12 KT):0
Visibility: greater than 7 mile(s):0 Temperature: 64 F (18 C) Dew Point: 33 F (1 C) Relative Humidity: 31% Pressure (altimeter): 30.21 in. Hg (1023 hPa)
ob: EDDF 051220Z 10012KT CAVOK 18/01 Q1023 TEMPO 10015G25KT cycle: 12
Sunrise: 04:55 Sunset: 18:01 (UTC)

Kerkyra Airport , Greece (LGKR) 39-37N 019-55E 4M Apr 05, 2020 - 08:20 AM EDT / 2020.04.05 1220 UTC
Wind: from the SE (140 degrees) at 6 MPH (5 KT):0
Visibility: greater than 7 mile(s):0
Sky conditions: mostly cloudy Temperature: 62 F (17 C) Dew Point: 44 F (7 C) Relative Humidity: 51% Pressure (altimeter): 29.85 in. Hg (1011 hPa)
ob: LGKR 051220Z 14005KT 9999 SCT035 BKN080 17/07 Q1011 NOSIG cycle: 12
Sunrise: 04:19 Sunset: 17:05 (UTC)

TAF:2020/04/05 12:12 TAF LGKR 051100Z 0512/0612 33008KT 9999 FEW025 BKN070 PROB30 TEMPO 0512/0515 5000 RA FEW015 BKN025 BECMG 0516/0518 08015KT

Previous Pireps for this route
Date Aircraft Flight time Fuel used Landing rate On time
2017-07-20A32102.0512565-142Yes
2018-03-28A32101.5411633-108Yes
2019-05-27MD-8102.1415113-201Charter
(pireps marked green are flown by you)

Route map